Aurora Australis — VNAA — position and weather

sailwx.info

Track history (hours):
 
Tides and Currents Weather Stations Pressure Air Temp Water Temp Dewpoint Dewpoint Depression Visibility Wind Speed Wind Dir Waves Ship Positions

Oceanographic research ship Aurora Australis (Australia)

Detailed information on ship capabilities available from University of Delaware's Ocean Information Center.

Last reported at 2018-Dec-06 09:13 UTC. Time now 2018-Dec-18 10:30 UTC.
Position S 43°43' E 147°07'.
Warning: this ship's position is 12 days out of date.

Length 94.9 m; beam 20.3 m; draft 7.9 m.

Type: Ship. MMSI: 503043000.

Date/timePositionNaut miles runAvg speedWind from/ knotsBaromVisibWave heightAir tempDewpointWater temp
2018-Dec-06 09:13S 43°43' E 147°07'311.1
2018-Dec-06 08:58S 43°41' E 147°10'611.2
2018-Dec-06 08:28S 43°37' E 147°16'911.1
2018-Dec-06 07:39S 43°30' E 147°23'713.5
2018-Dec-06 07:09S 43°23' E 147°26'1 5.8
2018-Dec-06 07:00S 43°23' E 147°27'1111.6
2018-Dec-06 06:01S 43°11' E 147°29'011.9
2018-Dec-06 06:00S 43°11' E 147°29'  
2018-Nov-27 14:54S 43°26' E 147°24'15 6.9
2018-Nov-27 12:43S 43°38' E 147°12'2 8.2
2018-Nov-27 12:25S 43°40' E 147°09'9510.1
2018-Nov-27 03:00S 44°24' E 145°12'   160 / 71010.127.0 13.010.913.0
Track history (hours):
 
Tides and Currents Weather Stations Pressure Air Temp Water Temp Dewpoint Dewpoint Depression Visibility Wind Speed Wind Dir Waves Ship Positions

Oceanographic research ship Aurora Australis (Australia)

Detailed information on ship capabilities available from University of Delaware's Ocean Information Center.

Last reported at 2018-Dec-06 09:13 UTC. Time now 2018-Dec-18 10:30 UTC.
Position S 43°43' E 147°07'.
Warning: this ship's position is 12 days out of date.

Length 94.9 m; beam 20.3 m; draft 7.9 m.

Type: Ship. MMSI: 503043000.

Date/timePositionNaut miles runAvg speedWind from/ knotsBaromVisibWave heightAir tempDewpointWater temp
2018-Dec-06 09:13S 43°43' E 147°07'311.1
2018-Dec-06 08:58S 43°41' E 147°10'611.2
2018-Dec-06 08:28S 43°37' E 147°16'911.1
2018-Dec-06 07:39S 43°30' E 147°23'713.5
2018-Dec-06 07:09S 43°23' E 147°26'1 5.8
2018-Dec-06 07:00S 43°23' E 147°27'1111.6
2018-Dec-06 06:01S 43°11' E 147°29'011.9
2018-Dec-06 06:00S 43°11' E 147°29'  
2018-Nov-27 14:54S 43°26' E 147°24'15 6.9
2018-Nov-27 12:43S 43°38' E 147°12'2 8.2
2018-Nov-27 12:25S 43°40' E 147°09'9510.1
2018-Nov-27 03:00S 44°24' E 145°12'   160 / 71010.127.0 13.010.913.0

Dump ship's entire track history